createdAt,value
2022-09-23T00:01:09.033Z,59.85
2022-09-23T00:03:38.154Z,60.87
2022-09-23T00:06:11.516Z,60.97
2022-09-23T00:08:39.303Z,61.44
2022-09-23T00:11:09.189Z,62.35
2022-09-23T00:13:37.812Z,63.34
2022-09-23T00:16:09.414Z,63.08
2022-09-23T00:18:36.395Z,63.92
2022-09-23T00:21:05.373Z,64.26
2022-09-23T00:23:32.517Z,64.36
2022-09-23T00:26:00.970Z,65.02
2022-09-23T00:28:27.914Z,65.36
2022-09-23T00:30:54.564Z,65.29
2022-09-23T00:33:21.221Z,65.27
2022-09-23T00:35:47.802Z,65.77
2022-09-23T00:38:14.410Z,66.39
2022-09-23T00:40:46.059Z,67.09
2022-09-23T00:43:14.817Z,67.47
2022-09-23T00:45:48.837Z,67.81
2022-09-23T00:48:20.401Z,68.80
2022-09-23T00:50:54.129Z,68.76
2022-09-23T00:53:23.702Z,69.51
2022-09-23T00:55:54.690Z,69.61
2022-09-23T00:58:31.189Z,70.75
2022-09-23T01:01:03.203Z,70.19
2022-09-23T01:03:31.832Z,70.26
2022-09-23T01:05:59.161Z,70.31
2022-09-23T01:08:27.244Z,69.90
2022-09-23T01:11:14.664Z,69.73
2022-09-23T01:14:13.454Z,70.17
2022-09-23T01:17:07.206Z,70.24
2022-09-23T01:19:46.638Z,70.10
2022-09-23T01:22:36.307Z,70.03
2022-09-23T01:25:22.572Z,70.22
2022-09-23T01:28:04.525Z,70.48
2022-09-23T01:30:36.961Z,70.70
2022-09-23T01:33:34.569Z,69.76
2022-09-23T01:36:10.486Z,69.34
2022-09-23T01:38:47.434Z,69.65
2022-09-23T01:41:45.289Z,69.77
2022-09-23T01:44:21.358Z,69.90
2022-09-23T01:46:53.197Z,69.70
2022-09-23T01:49:34.240Z,70.40
2022-09-23T01:52:16.533Z,71.13
2022-09-23T01:55:01.097Z,71.12
2022-09-23T01:57:37.324Z,71.06
2022-09-23T02:00:13.708Z,71.92
2022-09-23T02:02:47.991Z,71.93
2022-09-23T02:05:21.656Z,72.38
2022-09-23T02:07:59.567Z,72.94
2022-09-23T02:10:33.909Z,73.38
2022-09-23T02:13:06.255Z,74.28
2022-09-23T02:15:38.064Z,74.35
2022-09-23T02:18:16.994Z,74.79
2022-09-23T02:20:44.091Z,75.57
2022-09-23T02:23:27.375Z,74.90
2022-09-23T02:26:07.318Z,74.62
2022-09-23T02:29:18.173Z,75.52
2022-09-23T02:31:51.015Z,76.10
2022-09-23T02:34:26.373Z,76.30
2022-09-23T02:37:07.926Z,75.86
2022-09-23T02:40:06.958Z,75.75
2022-09-23T02:43:01.349Z,74.76
2022-09-23T02:45:28.245Z,75.49
2022-09-23T02:48:02.594Z,76.14
2022-09-23T02:50:30.846Z,76.16
2022-09-23T02:52:59.905Z,76.00
2022-09-23T02:55:31.377Z,76.72
2022-09-23T02:58:01.408Z,76.93
2022-09-23T03:00:53.865Z,76.46
2022-09-23T03:03:47.302Z,77.59
2022-09-23T03:06:37.373Z,77.03
2022-09-23T03:09:24.377Z,77.42
2022-09-23T03:12:01.714Z,77.62
2022-09-23T03:14:49.941Z,76.80
2022-09-23T03:17:38.004Z,76.58
2022-09-23T03:20:35.061Z,75.87
2022-09-23T03:23:07.770Z,75.82
2022-09-23T03:25:40.157Z,75.62
2022-09-23T03:28:08.538Z,75.97
2022-09-23T03:30:38.050Z,75.67
2022-09-23T03:33:09.253Z,75.68
2022-09-23T03:36:02.033Z,76.78
2022-09-23T03:38:34.973Z,76.86
2022-09-23T03:41:04.170Z,77.00
2022-09-23T03:43:36.521Z,77.92
2022-09-23T03:46:07.131Z,77.76
2022-09-23T03:48:33.958Z,77.91
2022-09-23T03:51:28.006Z,78.60
2022-09-23T03:53:54.645Z,79.30
2022-09-23T03:56:21.297Z,78.69
2022-09-23T03:58:48.743Z,78.68
2022-09-23T04:01:15.461Z,79.29
2022-09-23T04:03:42.211Z,78.31
2022-09-23T04:06:09.268Z,77.94
2022-09-23T04:08:36.022Z,78.36
2022-09-23T04:11:04.614Z,77.29
2022-09-23T04:13:31.768Z,76.66
2022-09-23T04:15:58.690Z,76.56
2022-09-23T04:18:25.432Z,76.11
2022-09-23T04:20:52.230Z,76.66
2022-09-23T04:23:18.958Z,76.31
2022-09-23T04:25:49.522Z,76.47
2022-09-23T04:28:17.181Z,76.77
2022-09-23T04:30:44.265Z,75.83
2022-09-23T04:33:11.702Z,75.51
2022-09-23T04:35:40.534Z,75.79
2022-09-23T04:38:07.515Z,75.36
2022-09-23T04:40:36.283Z,76.00
2022-09-23T04:43:03.209Z,75.40
2022-09-23T04:45:30.395Z,75.08
2022-09-23T04:47:58.349Z,76.33
2022-09-23T04:50:26.327Z,76.64
2022-09-23T04:52:53.946Z,77.04
2022-09-23T04:55:21.970Z,77.36
2022-09-23T04:57:48.579Z,76.28
2022-09-23T05:00:15.487Z,76.15
2022-09-23T05:02:44.256Z,75.86
2022-09-23T05:05:11.570Z,75.53
2022-09-23T05:07:38.710Z,75.34
2022-09-23T05:10:05.990Z,75.49
2022-09-23T05:12:32.759Z,75.08
2022-09-23T05:14:59.552Z,74.79
2022-09-23T05:17:26.287Z,74.38
2022-09-23T05:19:52.896Z,75.30
2022-09-23T05:22:19.574Z,74.43
2022-09-23T05:24:46.231Z,75.10
2022-09-23T05:27:13.045Z,74.95
2022-09-23T05:29:39.664Z,73.75
2022-09-23T05:32:06.295Z,73.34
2022-09-23T05:34:32.919Z,72.68
2022-09-23T05:36:59.557Z,72.66
2022-09-23T05:39:26.259Z,73.60
2022-09-23T05:41:53.794Z,73.54
2022-09-23T05:44:20.536Z,73.55
2022-09-23T05:46:47.259Z,74.16
2022-09-23T05:49:14.486Z,73.98
2022-09-23T05:51:41.181Z,73.28
2022-09-23T05:54:08.327Z,73.03
2022-09-23T05:56:37.156Z,74.19
2022-09-23T05:59:06.439Z,74.13
2022-09-23T06:01:35.220Z,73.99
2022-09-23T06:04:04.485Z,73.73
2022-09-23T06:06:36.749Z,73.47
2022-09-23T06:09:04.780Z,73.52
2022-09-23T06:11:33.401Z,73.27
2022-09-23T06:14:01.111Z,74.03
2022-09-23T06:16:29.844Z,74.05
2022-09-23T06:18:57.578Z,73.97
2022-09-23T06:21:26.408Z,73.64
2022-09-23T06:23:56.052Z,73.46
2022-09-23T06:26:23.289Z,72.91
2022-09-23T06:28:50.250Z,72.67
2022-09-23T06:31:17.426Z,72.94
2022-09-23T06:33:45.577Z,70.71
2022-09-23T06:36:19.071Z,69.77
2022-09-23T06:38:51.189Z,69.47
2022-09-23T06:41:18.092Z,69.38
2022-09-23T06:43:44.716Z,69.52
2022-09-23T06:46:15.646Z,69.85
2022-09-23T06:48:46.193Z,70.26
2022-09-23T06:51:20.072Z,69.54
2022-09-23T06:53:48.650Z,69.60
2022-09-23T06:56:39.101Z,68.90
2022-09-23T06:59:43.293Z,69.35
2022-09-23T07:02:47.232Z,68.72
2022-09-23T07:05:50.750Z,68.35
2022-09-23T07:08:55.015Z,67.77
2022-09-23T07:11:58.774Z,68.83
2022-09-23T07:15:02.688Z,67.95
2022-09-23T07:18:06.337Z,68.13
2022-09-23T07:21:11.783Z,67.62
2022-09-23T07:24:15.442Z,66.64
2022-09-23T07:27:19.418Z,66.01
2022-09-23T07:30:25.555Z,65.37
2022-09-23T07:33:32.573Z,65.14
2022-09-23T07:36:37.936Z,63.94
2022-09-23T07:39:41.540Z,64.69
2022-09-23T07:42:45.345Z,64.20
2022-09-23T07:45:49.197Z,63.69
2022-09-23T07:48:54.538Z,62.41
2022-09-23T07:51:59.947Z,61.92
2022-09-23T07:55:05.438Z,60.66
2022-09-23T07:58:09.419Z,59.80
2022-09-23T08:01:13.199Z,59.13
2022-09-23T08:04:20.037Z,58.82
2022-09-23T08:07:24.722Z,59.07
2022-09-23T08:10:28.456Z,59.49
2022-09-23T08:13:32.304Z,59.04
2022-09-23T08:16:36.320Z,57.57
2022-09-23T08:19:40.242Z,57.71
2022-09-23T08:22:43.972Z,56.58
2022-09-23T08:25:47.932Z,57.94
2022-09-23T08:28:51.631Z,56.59
2022-09-23T08:31:55.317Z,55.48
2022-09-23T08:34:59.068Z,54.59
2022-09-23T08:38:02.917Z,55.46
2022-09-23T08:41:08.402Z,55.01
2022-09-23T08:44:21.435Z,53.99
2022-09-23T08:47:34.861Z,53.77
2022-09-23T08:50:40.213Z,53.04
2022-09-23T08:53:54.745Z,54.69
2022-09-23T08:57:03.237Z,53.78
2022-09-23T09:00:07.114Z,53.02
2022-09-23T09:03:13.999Z,51.11
2022-09-23T09:06:17.871Z,50.58
2022-09-23T09:09:29.102Z,50.96
2022-09-23T09:12:37.064Z,50.62
2022-09-23T09:15:46.697Z,50.54
2022-09-23T09:18:53.936Z,49.52
2022-09-23T09:21:59.291Z,49.13
2022-09-23T09:25:07.225Z,47.98
2022-09-23T09:28:14.138Z,48.86
2022-09-23T09:31:44.924Z,49.03
2022-09-23T09:34:55.844Z,48.45
2022-09-23T09:38:06.168Z,47.95
2022-09-23T09:41:10.600Z,47.45
2022-09-23T09:44:14.507Z,46.13
2022-09-23T09:47:46.801Z,45.41
2022-09-23T09:51:07.129Z,46.68
2022-09-23T09:54:11.255Z,45.08
2022-09-23T09:57:15.635Z,45.93
2022-09-23T10:00:44.937Z,45.08
2022-09-23T10:03:59.563Z,45.56
2022-09-23T10:07:24.264Z,45.96
2022-09-23T10:10:57.288Z,45.17
2022-09-23T10:14:18.958Z,45.46
2022-09-23T10:16:48.769Z,45.47
2022-09-23T10:19:27.119Z,45.22
2022-09-23T10:22:00.170Z,44.91
2022-09-23T10:24:30.350Z,45.93
2022-09-23T10:27:09.475Z,45.15
2022-09-23T10:29:48.120Z,45.31
2022-09-23T10:32:28.600Z,46.40
2022-09-23T10:35:03.314Z,45.79
2022-09-23T10:37:38.037Z,46.14
2022-09-23T10:40:48.438Z,46.55
2022-09-23T10:43:38.879Z,45.35
2022-09-23T10:46:30.224Z,45.71
2022-09-23T10:49:34.490Z,45.30
2022-09-23T10:52:19.775Z,44.72
2022-09-23T10:54:58.495Z,45.25
2022-09-23T10:57:42.541Z,45.81
2022-09-23T11:00:46.769Z,46.30
2022-09-23T11:03:17.482Z,46.18
2022-09-23T11:06:22.724Z,46.74
2022-09-23T11:09:14.549Z,47.21
2022-09-23T11:11:53.356Z,47.36
2022-09-23T11:15:01.638Z,46.52
2022-09-23T11:17:55.274Z,47.31
2022-09-23T11:20:35.607Z,47.25
2022-09-23T11:23:24.201Z,47.38
2022-09-23T11:26:23.329Z,47.67
2022-09-23T11:29:11.763Z,47.59
2022-09-23T11:31:58.773Z,48.55
2022-09-23T11:34:55.038Z,47.66
2022-09-23T11:37:30.288Z,48.32
2022-09-23T11:40:15.154Z,47.85
2022-09-23T11:43:18.555Z,48.33
2022-09-23T11:45:54.075Z,48.56
2022-09-23T11:48:29.841Z,48.57
2022-09-23T11:51:02.902Z,48.11
2022-09-23T11:53:53.247Z,47.60
2022-09-23T11:56:35.337Z,46.89
2022-09-23T12:02:20.753Z,47.14
2022-09-23T12:05:12.294Z,47.01
2022-09-23T12:07:57.642Z,46.57
2022-09-23T12:10:44.138Z,46.87
2022-09-23T12:13:19.346Z,47.25
2022-09-23T12:16:03.907Z,46.20
2022-09-23T12:18:38.365Z,46.37
2022-09-23T12:21:50.563Z,47.26
2022-09-23T12:24:47.251Z,46.71
2022-09-23T12:27:32.463Z,46.71
2022-09-23T12:30:04.788Z,46.15
2022-09-23T12:32:32.472Z,46.32
2022-09-23T12:35:00.507Z,46.44
2022-09-23T12:37:37.992Z,46.33
2022-09-23T12:40:22.152Z,46.44
2022-09-23T12:42:49.994Z,46.82
2022-09-23T12:45:37.317Z,46.37
2022-09-23T12:48:43.382Z,46.49
2022-09-23T12:51:16.752Z,46.66
2022-09-23T12:54:23.569Z,46.76
2022-09-23T12:56:56.302Z,46.05
2022-09-23T12:59:30.754Z,45.59
2022-09-23T13:02:11.189Z,45.82
2022-09-23T13:04:59.945Z,46.64
2022-09-23T13:07:31.984Z,47.12
2022-09-23T13:10:23.748Z,46.82
2022-09-23T13:12:52.609Z,45.98
2022-09-23T13:15:33.827Z,45.69
2022-09-23T13:18:50.153Z,45.94
2022-09-23T13:21:39.280Z,46.40
2022-09-23T13:24:31.118Z,45.74
2022-09-23T13:27:22.723Z,45.65
2022-09-23T13:29:57.782Z,45.73
2022-09-23T13:32:35.565Z,46.81
2022-09-23T13:35:05.887Z,47.03
2022-09-23T13:37:46.143Z,46.24
2022-09-23T13:40:28.531Z,46.58
2022-09-23T13:43:07.998Z,46.44
2022-09-23T13:45:40.129Z,47.03
2022-09-23T13:48:11.920Z,47.40
2022-09-23T13:50:43.041Z,47.69
2022-09-23T13:53:13.245Z,46.90
2022-09-23T13:55:41.260Z,47.19
2022-09-23T13:58:18.913Z,46.67
2022-09-23T14:00:46.431Z,46.28
2022-09-23T14:03:25.819Z,46.70
2022-09-23T14:05:54.199Z,46.07
2022-09-23T14:08:22.056Z,45.58
2022-09-23T14:10:48.780Z,45.68
2022-09-23T14:13:27.606Z,45.66
2022-09-23T14:15:58.448Z,45.66
2022-09-23T14:18:46.751Z,44.67
2022-09-23T14:21:37.169Z,44.22
2022-09-23T14:24:10.144Z,44.23
2022-09-23T14:26:39.340Z,44.04
2022-09-23T14:29:12.796Z,44.28
2022-09-23T14:31:40.252Z,44.73
2022-09-23T14:34:47.885Z,44.81
2022-09-23T14:37:42.470Z,44.48
2022-09-23T14:40:17.341Z,44.19
2022-09-23T14:42:56.441Z,43.23
2022-09-23T14:45:26.988Z,43.01
2022-09-23T14:48:00.053Z,42.89
2022-09-23T14:50:48.427Z,43.38
2022-09-23T14:53:24.121Z,43.72
2022-09-23T14:55:54.139Z,44.41
2022-09-23T14:58:23.981Z,44.31
2022-09-23T15:01:00.829Z,44.74
2022-09-23T15:03:30.249Z,44.84
2022-09-23T15:06:08.530Z,45.16
2022-09-23T15:08:35.894Z,45.68
2022-09-23T15:11:07.903Z,46.13
2022-09-23T15:13:41.732Z,45.41
2022-09-23T15:16:08.512Z,45.27
2022-09-23T15:18:37.655Z,45.06
2022-09-23T15:21:19.220Z,45.92
2022-09-23T15:23:54.863Z,46.36
2022-09-23T15:26:40.563Z,46.65
2022-09-23T15:29:10.851Z,46.65
2022-09-23T15:31:37.710Z,46.96
2022-09-23T15:34:07.961Z,47.03
2022-09-23T15:36:34.865Z,46.64
2022-09-23T15:39:03.338Z,46.82
2022-09-23T15:41:32.927Z,46.40
2022-09-23T15:44:11.691Z,46.38
2022-09-23T15:46:40.402Z,46.55
2022-09-23T15:49:16.313Z,46.99
2022-09-23T15:51:42.995Z,47.55
2022-09-23T15:54:12.467Z,48.17
2022-09-23T15:56:39.689Z,47.35
2022-09-23T15:59:06.441Z,47.28
2022-09-23T16:01:36.485Z,47.36
2022-09-23T16:04:04.569Z,47.85
2022-09-23T16:06:32.472Z,48.23
2022-09-23T16:08:59.120Z,48.18
2022-09-23T16:11:31.761Z,48.51
2022-09-23T16:14:00.609Z,48.43
2022-09-23T16:16:27.853Z,47.89
2022-09-23T16:18:55.094Z,48.39
2022-09-23T16:21:25.017Z,48.87
2022-09-23T16:23:53.391Z,48.63
2022-09-23T16:26:24.109Z,48.54
2022-09-23T16:28:53.547Z,48.21
2022-09-23T16:31:22.103Z,48.52
2022-09-23T16:33:49.170Z,48.55
2022-09-23T16:36:34.643Z,48.60
2022-09-23T16:39:04.320Z,49.22
2022-09-23T16:41:31.617Z,48.75
2022-09-23T16:44:00.744Z,49.55
2022-09-23T16:46:29.256Z,50.33
2022-09-23T16:48:57.548Z,50.13
2022-09-23T16:51:29.835Z,50.28
2022-09-23T16:53:58.711Z,49.80
2022-09-23T16:56:28.890Z,49.95
2022-09-23T16:58:56.722Z,50.54
2022-09-23T17:01:45.044Z,50.61
2022-09-23T17:04:12.873Z,50.81
2022-09-23T17:06:48.984Z,51.46
2022-09-23T17:09:20.079Z,51.98
2022-09-23T17:11:53.061Z,51.58
2022-09-23T17:14:21.099Z,50.93
2022-09-23T17:16:47.745Z,51.02
2022-09-23T17:19:14.503Z,51.44
2022-09-23T17:21:41.801Z,51.67
2022-09-23T17:24:08.533Z,51.54
2022-09-23T17:26:35.224Z,51.49
2022-09-23T17:29:02.063Z,51.05
2022-09-23T17:31:30.488Z,51.32
2022-09-23T17:33:57.206Z,52.18
2022-09-23T17:36:23.922Z,52.33
2022-09-23T17:38:53.729Z,53.14
2022-09-23T17:41:20.868Z,52.73
2022-09-23T17:43:47.590Z,53.11
2022-09-23T17:46:18.055Z,54.18
2022-09-23T17:48:46.963Z,55.05
2022-09-23T17:51:16.194Z,55.08
2022-09-23T17:53:45.645Z,55.11
2022-09-23T17:56:20.104Z,54.98
2022-09-23T17:58:48.863Z,54.97
2022-09-23T18:01:19.995Z,55.46
2022-09-23T18:03:47.313Z,55.19
2022-09-23T18:06:17.187Z,55.92
2022-09-23T18:08:45.437Z,54.05
2022-09-23T18:11:22.061Z,53.27
2022-09-23T18:14:03.599Z,53.69
2022-09-23T18:16:41.346Z,54.62
2022-09-23T18:19:11.523Z,55.70
2022-09-23T18:21:40.720Z,55.60
2022-09-23T18:26:59.419Z,57.29
2022-09-23T18:29:26.043Z,57.51
2022-09-23T18:31:52.805Z,57.36
2022-09-23T18:34:20.126Z,57.39
2022-09-23T18:36:47.913Z,57.10
2022-09-23T18:39:14.756Z,57.13
2022-09-23T18:41:41.424Z,56.62
2022-09-23T18:44:08.588Z,57.03
2022-09-23T18:46:35.818Z,57.34
2022-09-23T18:49:23.640Z,58.49
2022-09-23T18:51:59.421Z,59.78
2022-09-23T18:54:29.688Z,60.20
2022-09-23T18:56:57.440Z,60.48
2022-09-23T18:59:27.903Z,60.39
2022-09-23T19:01:55.763Z,59.63
2022-09-23T19:04:24.186Z,59.75
2022-09-23T19:06:51.049Z,60.46
2022-09-23T19:09:18.215Z,60.46
2022-09-23T19:11:45.155Z,59.71
2022-09-23T19:14:12.823Z,59.49
2022-09-23T19:16:40.865Z,59.71
2022-09-23T19:19:08.093Z,59.59
2022-09-23T19:21:35.316Z,58.95
2022-09-23T19:24:06.588Z,58.89
2022-09-23T19:26:40.906Z,59.47
2022-09-23T19:29:12.917Z,60.14
2022-09-23T19:31:40.470Z,58.89
2022-09-23T19:34:13.109Z,60.46
2022-09-23T19:36:42.507Z,61.67
2022-09-23T19:39:31.622Z,62.28
2022-09-23T19:41:59.204Z,62.00
2022-09-23T19:44:26.697Z,62.15
2022-09-23T19:46:56.517Z,60.65
2022-09-23T19:49:24.730Z,60.77
2022-09-23T19:51:52.066Z,60.44
2022-09-23T19:54:20.453Z,59.83
2022-09-23T19:56:48.539Z,61.11
2022-09-23T19:59:18.765Z,60.44
2022-09-23T20:01:47.605Z,60.82
2022-09-23T20:04:15.541Z,61.26
2022-09-23T20:06:42.130Z,62.94
2022-09-23T20:09:09.152Z,63.68
2022-09-23T20:11:35.968Z,64.03
2022-09-23T20:14:04.837Z,64.38
2022-09-23T20:16:34.920Z,64.62
2022-09-23T20:19:02.117Z,64.61
2022-09-23T20:21:29.573Z,63.74
2022-09-23T20:23:57.835Z,63.91
2022-09-23T20:26:43.659Z,64.28
2022-09-23T20:29:10.990Z,64.08
2022-09-23T20:31:40.218Z,64.00
2022-09-23T20:34:08.142Z,65.29
2022-09-23T20:36:35.335Z,65.72
2022-09-23T20:39:05.800Z,66.56
2022-09-23T20:41:36.635Z,64.40
2022-09-23T20:44:06.249Z,64.48
2022-09-23T20:46:33.933Z,64.42
2022-09-23T20:49:01.872Z,65.13
2022-09-23T20:51:28.874Z,64.81
2022-09-23T20:53:55.740Z,65.04
2022-09-23T20:56:23.503Z,65.80
2022-09-23T20:58:52.673Z,66.83
2022-09-23T21:01:20.711Z,68.16
2022-09-23T21:03:50.029Z,68.27
2022-09-23T21:06:18.860Z,68.90
2022-09-23T21:08:46.332Z,69.51
2022-09-23T21:11:15.444Z,70.00
2022-09-23T21:13:47.446Z,70.86
2022-09-23T21:16:17.903Z,70.19
2022-09-23T21:18:45.631Z,70.22
2022-09-23T21:21:14.327Z,70.35
2022-09-23T21:23:42.651Z,70.46
2022-09-23T21:26:12.276Z,69.95
2022-09-23T21:28:41.364Z,69.82
2022-09-23T21:31:14.879Z,69.32
2022-09-23T21:33:41.555Z,69.72
2022-09-23T21:36:09.779Z,69.38
2022-09-23T21:38:37.614Z,69.61
2022-09-23T21:41:07.147Z,69.44
2022-09-23T21:43:38.286Z,69.38
2022-09-23T21:46:10.629Z,69.48
2022-09-23T21:48:43.274Z,68.49
2022-09-23T21:51:13.217Z,67.87
2022-09-23T21:53:41.445Z,67.62
2022-09-23T21:56:18.106Z,67.43
2022-09-23T21:58:47.287Z,67.76
2022-09-23T22:01:22.786Z,67.43
2022-09-23T22:03:55.235Z,67.54
2022-09-23T22:06:26.738Z,67.90
2022-09-23T22:08:58.879Z,67.80
2022-09-23T22:11:51.047Z,68.00
2022-09-23T22:14:20.132Z,68.36
2022-09-23T22:16:47.061Z,68.72
2022-09-23T22:19:14.972Z,68.24
2022-09-23T22:21:44.805Z,68.79
2022-09-23T22:24:12.812Z,68.74
2022-09-23T22:26:41.936Z,69.62
2022-09-23T22:29:32.419Z,69.96
2022-09-23T22:32:19.731Z,70.42
2022-09-23T22:34:50.504Z,68.45
2022-09-23T22:37:20.734Z,69.62
2022-09-23T22:39:47.488Z,70.07
2022-09-23T22:42:14.300Z,70.19
2022-09-23T22:44:41.165Z,69.39
2022-09-23T22:47:09.229Z,68.44
2022-09-23T22:49:36.033Z,68.63
2022-09-23T22:52:07.919Z,69.07
2022-09-23T22:54:35.771Z,68.88
2022-09-23T22:57:07.427Z,69.97
2022-09-23T22:59:37.540Z,70.63
2022-09-23T23:02:07.551Z,70.77
2022-09-23T23:04:34.378Z,69.84
2022-09-23T23:07:01.062Z,68.80
2022-09-23T23:09:27.685Z,68.66
2022-09-23T23:11:54.366Z,69.24
2022-09-23T23:14:21.022Z,68.97
2022-09-23T23:16:49.230Z,69.15
2022-09-23T23:19:18.034Z,70.24
2022-09-23T23:21:45.222Z,71.24
2022-09-23T23:24:20.892Z,71.49
2022-09-23T23:26:48.132Z,72.54
2022-09-23T23:29:16.942Z,73.94
2022-09-23T23:31:43.901Z,73.99
2022-09-23T23:34:20.419Z,74.23
2022-09-23T23:36:54.418Z,74.42
2022-09-23T23:39:23.501Z,74.06
2022-09-23T23:41:57.795Z,74.03
2022-09-23T23:44:25.682Z,73.98
2022-09-23T23:46:53.661Z,73.93
2022-09-23T23:49:21.373Z,74.39
2022-09-23T23:51:48.112Z,74.35
2022-09-23T23:54:15.306Z,74.56
2022-09-23T23:56:42.282Z,75.01
2022-09-23T23:59:08.878Z,73.55
